Tasman Mariner — VRWW8 — position and weather

sailwx.info

Track history (hours):
 
Tides and Currents Weather Stations Pressure Air Temp Water Temp Dewpoint Dewpoint Depression Visibility Wind Speed Wind Dir Waves Ship Positions

Tasman Mariner

Last reported at 2018-Apr-16 19:42 UTC. Time now 2018-Apr-21 21:22 UTC.
Position S 06°11' E 116°45'.

Length 184 m; beam 27 m; draft 10 m.

Type: Ship (hazmat cat C). MMSI: 477860000.

Date/timePositionNaut miles runAvg speedWind from/ knotsBaromVisibWave heightAir tempDewpointWater temp
2018-Apr-16 19:42S 06°11' E 116°45'615.6
2018-Apr-16 19:18S 06°09' E 116°39'515.8
2018-Apr-16 18:58S 06°08' E 116°34'715.8
2018-Apr-16 18:30S 06°07' E 116°27'  
2018-Apr-14 06:42N 01°15' E 104°05'414.1
2018-Apr-14 06:27N 01°15' E 104°02'614.3
2018-Apr-14 06:00N 01°13' E 103°55'815.4
2018-Apr-14 05:30N 01°10' E 103°49'714.3
2018-Apr-14 05:00N 01°05' E 103°43'612.0
2018-Apr-14 04:30N 01°04' E 103°37'814.9
2018-Apr-14 03:59N 01°07' E 103°31'815.0
2018-Apr-14 03:28N 01°11' E 103°24'  
2018-Apr-11 10:50N 01°12' E 103°31'412.1
2018-Apr-11 10:30N 01°12' E 103°35'4 9.1
2018-Apr-11 10:00N 01°12' E 103°39'510.2
2018-Apr-11 09:31N 01°15' E 103°44'3 5.2
2018-Apr-11 09:01N 01°18' E 103°43'0 0.8
2018-Apr-11 08:31N 01°18' E 103°43'0 0.0
2018-Apr-11 07:59N 01°18' E 103°43'0 0.0
2018-Apr-11 07:28N 01°18' E 103°43'0 0.0
2018-Apr-11 06:58N 01°18' E 103°43'0 0.0
2018-Apr-11 06:30N 01°18' E 103°43'0 0.0
2018-Apr-11 06:00N 01°18' E 103°43'0 0.0
2018-Apr-11 05:18N 01°18' E 103°43'0 0.0
2018-Apr-11 05:00N 01°18' E 103°43'0 0.0
2018-Apr-11 04:30N 01°18' E 103°43'0 0.0
2018-Apr-11 04:00N 01°18' E 103°43'0 0.0
2018-Apr-11 03:30N 01°18' E 103°43'0 0.0
2018-Apr-11 03:01N 01°18' E 103°43'0 0.0
2018-Apr-11 02:30N 01°18' E 103°43'0 0.0
2018-Apr-11 01:58N 01°18' E 103°43'0 0.0
2018-Apr-11 01:30N 01°18' E 103°43'0 0.0
2018-Apr-11 00:57N 01°18' E 103°43'0 0.0
2018-Apr-11 00:30N 01°18' E 103°43'0 0.0
2018-Apr-11 00:00N 01°18' E 103°43'0 0.0
2018-Apr-10 23:30N 01°18' E 103°43'0 0.0
2018-Apr-10 22:57N 01°18' E 103°43'0 0.0
2018-Apr-10 22:31N 01°18' E 103°43'0 0.0
2018-Apr-10 22:00N 01°18' E 103°43'0 0.0
2018-Apr-10 21:30N 01°18' E 103°43'0 0.0
2018-Apr-10 21:00N 01°18' E 103°43'0 0.0
2018-Apr-10 20:30N 01°18' E 103°43'0 0.0
2018-Apr-10 20:00N 01°18' E 103°43'0 0.0
2018-Apr-10 19:30N 01°18' E 103°43'0 0.0
2018-Apr-10 19:00N 01°18' E 103°43'0 0.0
2018-Apr-10 18:30N 01°18' E 103°43'0 0.0
2018-Apr-10 18:00N 01°18' E 103°43'0 0.0
2018-Apr-10 17:30N 01°18' E 103°43'0 0.0
2018-Apr-10 17:00N 01°18' E 103°43'0 0.0
2018-Apr-10 16:30N 01°18' E 103°43'0 0.5
2018-Apr-10 16:00N 01°18' E 103°43'3 5.6
2018-Apr-10 15:30N 01°16' E 103°45'5 9.4
2018-Apr-10 15:00N 01°13' E 103°48'4 7.1
2018-Apr-10 14:30N 01°15' E 103°52'2 3.6
2018-Apr-10 14:00N 01°16' E 103°50'0 0.0
2018-Apr-10 13:29N 01°16' E 103°50'0 0.0
2018-Apr-10 13:00N 01°16' E 103°50'0 0.0
2018-Apr-10 12:30N 01°16' E 103°50'0 0.0
2018-Apr-10 11:59N 01°16' E 103°50'0 0.0
2018-Apr-10 11:29N 01°16' E 103°50'0 0.0
2018-Apr-10 10:59N 01°16' E 103°50'0 0.0
2018-Apr-10 10:29N 01°16' E 103°50'0 0.0
2018-Apr-10 09:59N 01°16' E 103°50'0 0.0
2018-Apr-10 09:29N 01°16' E 103°50'0 0.0
2018-Apr-10 08:59N 01°16' E 103°50'0 0.0
2018-Apr-10 08:29N 01°16' E 103°50'0 0.0
2018-Apr-10 07:53N 01°16' E 103°50'0 0.0
2018-Apr-10 07:26N 01°16' E 103°50'0 0.0
2018-Apr-10 06:59N 01°16' E 103°50'0 0.0
2018-Apr-10 06:29N 01°16' E 103°50'0 0.0
2018-Apr-10 05:59N 01°16' E 103°50'0 0.0
2018-Apr-10 05:29N 01°16' E 103°50'0 0.0
2018-Apr-10 04:59N 01°16' E 103°50'0 0.0
2018-Apr-10 04:29N 01°16' E 103°50'0 0.0
2018-Apr-10 03:59N 01°16' E 103°50'0 0.0
2018-Apr-10 03:29N 01°16' E 103°50'0 0.1
2018-Apr-10 03:00N 01°16' E 103°50'3 5.4
2018-Apr-10 02:29N 01°14' E 103°53'3 6.5
2018-Apr-10 02:00N 01°14' E 103°56'4 8.1
2018-Apr-10 01:29N 01°15' E 103°60'  
Track history (hours):
 
Tides and Currents Weather Stations Pressure Air Temp Water Temp Dewpoint Dewpoint Depression Visibility Wind Speed Wind Dir Waves Ship Positions

Tasman Mariner

Last reported at 2018-Apr-16 19:42 UTC. Time now 2018-Apr-21 21:22 UTC.
Position S 06°11' E 116°45'.

Length 184 m; beam 27 m; draft 10 m.

Type: Ship (hazmat cat C). MMSI: 477860000.

Date/timePositionNaut miles runAvg speedWind from/ knotsBaromVisibWave heightAir tempDewpointWater temp
2018-Apr-16 19:42S 06°11' E 116°45'615.6
2018-Apr-16 19:18S 06°09' E 116°39'515.8
2018-Apr-16 18:58S 06°08' E 116°34'715.8
2018-Apr-16 18:30S 06°07' E 116°27'  
2018-Apr-14 06:42N 01°15' E 104°05'414.1
2018-Apr-14 06:27N 01°15' E 104°02'614.3
2018-Apr-14 06:00N 01°13' E 103°55'815.4
2018-Apr-14 05:30N 01°10' E 103°49'714.3
2018-Apr-14 05:00N 01°05' E 103°43'612.0
2018-Apr-14 04:30N 01°04' E 103°37'814.9
2018-Apr-14 03:59N 01°07' E 103°31'815.0
2018-Apr-14 03:28N 01°11' E 103°24'  
2018-Apr-11 10:50N 01°12' E 103°31'412.1
2018-Apr-11 10:30N 01°12' E 103°35'4 9.1
2018-Apr-11 10:00N 01°12' E 103°39'510.2
2018-Apr-11 09:31N 01°15' E 103°44'3 5.2
2018-Apr-11 09:01N 01°18' E 103°43'0 0.8
2018-Apr-11 08:31N 01°18' E 103°43'0 0.0
2018-Apr-11 07:59N 01°18' E 103°43'0 0.0
2018-Apr-11 07:28N 01°18' E 103°43'0 0.0
2018-Apr-11 06:58N 01°18' E 103°43'0 0.0
2018-Apr-11 06:30N 01°18' E 103°43'0 0.0
2018-Apr-11 06:00N 01°18' E 103°43'0 0.0
2018-Apr-11 05:18N 01°18' E 103°43'0 0.0
2018-Apr-11 05:00N 01°18' E 103°43'0 0.0
2018-Apr-11 04:30N 01°18' E 103°43'0 0.0
2018-Apr-11 04:00N 01°18' E 103°43'0 0.0
2018-Apr-11 03:30N 01°18' E 103°43'0 0.0
2018-Apr-11 03:01N 01°18' E 103°43'0 0.0
2018-Apr-11 02:30N 01°18' E 103°43'0 0.0
2018-Apr-11 01:58N 01°18' E 103°43'0 0.0
2018-Apr-11 01:30N 01°18' E 103°43'0 0.0
2018-Apr-11 00:57N 01°18' E 103°43'0 0.0
2018-Apr-11 00:30N 01°18' E 103°43'0 0.0
2018-Apr-11 00:00N 01°18' E 103°43'0 0.0
2018-Apr-10 23:30N 01°18' E 103°43'0 0.0
2018-Apr-10 22:57N 01°18' E 103°43'0 0.0
2018-Apr-10 22:31N 01°18' E 103°43'0 0.0
2018-Apr-10 22:00N 01°18' E 103°43'0 0.0
2018-Apr-10 21:30N 01°18' E 103°43'0 0.0
2018-Apr-10 21:00N 01°18' E 103°43'0 0.0
2018-Apr-10 20:30N 01°18' E 103°43'0 0.0
2018-Apr-10 20:00N 01°18' E 103°43'0 0.0
2018-Apr-10 19:30N 01°18' E 103°43'0 0.0
2018-Apr-10 19:00N 01°18' E 103°43'0 0.0
2018-Apr-10 18:30N 01°18' E 103°43'0 0.0
2018-Apr-10 18:00N 01°18' E 103°43'0 0.0
2018-Apr-10 17:30N 01°18' E 103°43'0 0.0
2018-Apr-10 17:00N 01°18' E 103°43'0 0.0
2018-Apr-10 16:30N 01°18' E 103°43'0 0.5
2018-Apr-10 16:00N 01°18' E 103°43'3 5.6
2018-Apr-10 15:30N 01°16' E 103°45'5 9.4
2018-Apr-10 15:00N 01°13' E 103°48'4 7.1
2018-Apr-10 14:30N 01°15' E 103°52'2 3.6
2018-Apr-10 14:00N 01°16' E 103°50'0 0.0
2018-Apr-10 13:29N 01°16' E 103°50'0 0.0
2018-Apr-10 13:00N 01°16' E 103°50'0 0.0
2018-Apr-10 12:30N 01°16' E 103°50'0 0.0
2018-Apr-10 11:59N 01°16' E 103°50'0 0.0
2018-Apr-10 11:29N 01°16' E 103°50'0 0.0
2018-Apr-10 10:59N 01°16' E 103°50'0 0.0
2018-Apr-10 10:29N 01°16' E 103°50'0 0.0
2018-Apr-10 09:59N 01°16' E 103°50'0 0.0
2018-Apr-10 09:29N 01°16' E 103°50'0 0.0
2018-Apr-10 08:59N 01°16' E 103°50'0 0.0
2018-Apr-10 08:29N 01°16' E 103°50'0 0.0
2018-Apr-10 07:53N 01°16' E 103°50'0 0.0
2018-Apr-10 07:26N 01°16' E 103°50'0 0.0
2018-Apr-10 06:59N 01°16' E 103°50'0 0.0
2018-Apr-10 06:29N 01°16' E 103°50'0 0.0
2018-Apr-10 05:59N 01°16' E 103°50'0 0.0
2018-Apr-10 05:29N 01°16' E 103°50'0 0.0
2018-Apr-10 04:59N 01°16' E 103°50'0 0.0
2018-Apr-10 04:29N 01°16' E 103°50'0 0.0
2018-Apr-10 03:59N 01°16' E 103°50'0 0.0
2018-Apr-10 03:29N 01°16' E 103°50'0 0.1
2018-Apr-10 03:00N 01°16' E 103°50'3 5.4
2018-Apr-10 02:29N 01°14' E 103°53'3 6.5
2018-Apr-10 02:00N 01°14' E 103°56'4 8.1
2018-Apr-10 01:29N 01°15' E 103°60'  

Dump ship's entire track history